Volkel Air Base

EHVK · 北布拉班特省, 荷兰

罗盘
风向 的 Volkel Air Base 6L/24R
风: 2 kt, 1 beaufort

1 kt

2 kt
改变
0 1.000 2.000 3.000 4.000 5.000
垂直能见度
METAR EHDL 290725Z AUTO VRB02KT 0350 FG VV000 07/07 Q1017 RED

METAR Volkel Air Base - EHVK/UDE

Volkel Air Base是,荷兰中的中型机场。 该机场有3条跑道: 6L/24R, 6R/24L 和 6/24. 该领域的国际民航组织标志是EHVK 它的国际航空运输协会代码是UDE.

这份报告是针对2022年11月29日 08:25, 当地时间在Deelen Air Base进行的。

机场观察

可变方向的风很小或没有风。

可见度为350 m。

垂直能见度为0 ft 没有观察到天花板。

当前天气为多雾路段。 温度为7 °C,阵风为6 °C。 露点为7 °C,相对湿度为100%。 海平面上的气压为1017 hPa (QNH)。

白天

今天,太阳从08:18升起,在16:32降落。 这适用于Volkel Air Base,世界夏令时可能有所不同。 当地时间与世界标准时间之间的时差为+1 小时。 当前,没有夏令时有效。

公司介绍

我们没有关于这个机场的公司信息。

体会

在这个机场有专业的飞行模拟器。 如果你愿意,你可以在这些模拟器中预订一个课程。 这个机场最受欢迎的模拟机类型是F16 simulator Boxmeer。 一节课的价格从€ 85开始。 你可以在这里预订F16 simulator Boxmeer

警示语

垂直能见度为0 ft。

跑道

Id 标题 侧风 逆风 侧风 %
6L/24R 058°-238° 2 kt 1 kt 85 %
6R/24L 058°-238° 2 kt 1 kt 85 %
6/24 055°-235° 2 kt 1 kt 82 %

逆风成分最大的方向会被突出显示,并用于横风计算。 这并不一定意味着这个方向在使用。

乌云

0 ft VV 垂直能见度

温度 & 天气

天气 多雾路段
温度 7 °C
露点 7 °C
相对湿度 100%
风寒 6 °C
Kp-index 4 (0-9)

白天

日出
08:19
中午
12:24
日落
16:30 (7:34)

小工具

你想在你的网站上有一个关于Volkel Air Base的当前航空天气(METAR)的小部件吗?

显示HTML代码

我们和第三方通过cookies跟踪您在我们网站上的互联网行为。如果你继续,我们认为你同意我们的饼干政策